York, Western Australia

4:44 PM WST on September 16, 2014 (GMT +0800)
York Western Australia | Change Station
CLOSE
Current Station
Personal Weather Station
Location: York, Western Australia
Elevation: 620 ft
Nearby Weather Stations

Elev 620 ft 31.86 °S, 116.76 °E | Updated 13 minutes ago

Clear
Clear
71.8 °F
Feels Like 73 °F
N
0.0
Wind Variable Wind from North
Gusts 0.0 mph

Today
High -- | Low -- °F
--% Chance of Precip.
Yesterday
High -- | Low -- °F
Precip. -- in
6:11 AM 6:05 PM
Waning Gibbous, 47% visible
Pressure 29.98 in
Visibility -9999.0 miles
Clouds
Heat Index 73 °F
Dew Point 65 °F
Humidity 78%
Rainfall 0.00 in
Snow Depth Not available.
UV Not available.
Pollen Not available.
Air Quality Not available.
Flu Activity Not available.
METAR YPPH 160830Z 08008KT CAVOK 24/07 Q1015 RMK DISTANT FU AND HZ

More Conditions Fewer Conditions

Pressure 29.98 in
Visibility -9999.0 miles
Clouds
Heat Index 73 °F
Dew Point 65 °F
Humidity 78%
Rainfall 0.00 in
Snow Depth Not available.
UV Not available.
Pollen Not available.
Air Quality Not available.
Flu Activity Not available.
METAR YPPH 160830Z 08008KT CAVOK 24/07 Q1015 RMK DISTANT FU AND HZ

More Conditions Fewer Conditions

10-Day Weather Forecast

Almanac

Astronomy

Sep. 16, 2014 Rise Set
Actual Time 6:11 AM WST 6:05 PM WST
Civil Twilight 5:46 AM WST 6:29 PM WST
Nautical Twilight 5:18 AM WST 6:57 PM WST
Astronomical Twilight 4:50 AM WST 7:26 PM WST
Moon 12:33 AM WST 11:17 AM WST
Length of Visible Light 12h 42m
Length of Day
11h 54m
Tomorrow will be 1m 55s longer.
Waning Gibbous, 47% of the Moon is Illuminated
Today
Waning Gibbous
Sep 24
New
Oct 1
First Quarter
Oct 8
Full
Oct 15
Last Quarter

Yesterday's Extremes

Country Highs Country Lows

Community

WunderPhotos

Upload Photos

1,753,712 photos uploaded!

WunderBlogs® & News

Nearby

Snow Depth

Not available.

Earthquake Activity

City Distance Mag. Time & Date
No recent earthquake activity has been reported nearby.
Minimum magnitude displayed is 2.5.

Coastal Water Temperatures

Place Temperature
No Stations Reporting

Nearby Weather Stations